sensor_id;sensor_type;location;lat;lon;timestamp;temperature;humidity
13091;DHT22;6611;52.604;13.438;2023-09-19T00:03:17;18.87;80.46
13091;DHT22;6611;52.604;13.438;2023-09-19T00:08:18;18.81;80.19
13091;DHT22;6611;52.604;13.438;2023-09-19T00:13:25;18.70;80.78
13091;DHT22;6611;52.604;13.438;2023-09-19T00:18:26;18.77;80.52
13091;DHT22;6611;52.604;13.438;2023-09-19T00:23:32;18.68;80.54
13091;DHT22;6611;52.604;13.438;2023-09-19T00:28:35;18.63;80.63
13091;DHT22;6611;52.604;13.438;2023-09-19T00:33:37;18.65;80.58
13091;DHT22;6611;52.604;13.438;2023-09-19T00:38:39;18.59;80.46
13091;DHT22;6611;52.604;13.438;2023-09-19T00:43:42;18.60;80.59
13091;DHT22;6611;52.604;13.438;2023-09-19T00:48:43;18.61;80.56
13091;DHT22;6611;52.604;13.438;2023-09-19T00:53:46;18.57;80.54
13091;DHT22;6611;52.604;13.438;2023-09-19T00:58:49;18.47;80.85
13091;DHT22;6611;52.604;13.438;2023-09-19T01:03:51;18.46;80.79
13091;DHT22;6611;52.604;13.438;2023-09-19T01:08:53;18.43;80.91
13091;DHT22;6611;52.604;13.438;2023-09-19T01:14:02;18.43;80.97
13091;DHT22;6611;52.604;13.438;2023-09-19T01:19:20;18.42;80.72
13091;DHT22;6611;52.604;13.438;2023-09-19T01:24:41;18.37;81.01
13091;DHT22;6611;52.604;13.438;2023-09-19T01:29:49;18.42;80.78
13091;DHT22;6611;52.604;13.438;2023-09-19T01:34:54;18.44;80.79
13091;DHT22;6611;52.604;13.438;2023-09-19T01:40:00;18.40;80.89
13091;DHT22;6611;52.604;13.438;2023-09-19T01:45:22;18.42;80.85
13091;DHT22;6611;52.604;13.438;2023-09-19T01:50:30;18.51;80.42
13091;DHT22;6611;52.604;13.438;2023-09-19T01:55:40;18.54;80.00
13091;DHT22;6611;52.604;13.438;2023-09-19T02:00:44;18.54;79.89
13091;DHT22;6611;52.604;13.438;2023-09-19T02:05:50;18.49;80.15
13091;DHT22;6611;52.604;13.438;2023-09-19T02:10:54;18.50;80.10
13091;DHT22;6611;52.604;13.438;2023-09-19T02:15:55;18.47;80.10
13091;DHT22;6611;52.604;13.438;2023-09-19T02:20:58;18.39;80.34
13091;DHT22;6611;52.604;13.438;2023-09-19T02:26:00;18.33;80.39
13091;DHT22;6611;52.604;13.438;2023-09-19T02:31:02;18.34;80.61
13091;DHT22;6611;52.604;13.438;2023-09-19T02:36:08;18.34;80.55
13091;DHT22;6611;52.604;13.438;2023-09-19T02:41:10;18.19;80.97
13091;DHT22;6611;52.604;13.438;2023-09-19T02:46:12;18.13;81.08
13091;DHT22;6611;52.604;13.438;2023-09-19T02:51:16;18.09;81.41
13091;DHT22;6611;52.604;13.438;2023-09-19T02:56:17;17.99;81.67
13091;DHT22;6611;52.604;13.438;2023-09-19T03:01:19;17.91;81.78
13091;DHT22;6611;52.604;13.438;2023-09-19T03:06:23;17.94;81.99
13091;DHT22;6611;52.604;13.438;2023-09-19T03:11:25;17.92;81.97
13091;DHT22;6611;52.604;13.438;2023-09-19T03:16:26;17.94;82.02
13091;DHT22;6611;52.604;13.438;2023-09-19T03:21:29;17.91;81.96
13091;DHT22;6611;52.604;13.438;2023-09-19T03:26:31;17.92;81.65
13091;DHT22;6611;52.604;13.438;2023-09-19T03:31:33;17.84;81.71
13091;DHT22;6611;52.604;13.438;2023-09-19T03:36:38;17.80;81.19
13091;DHT22;6611;52.604;13.438;2023-09-19T03:41:41;17.80;79.76
13091;DHT22;6611;52.604;13.438;2023-09-19T03:46:42;17.82;79.10
13091;DHT22;6611;52.604;13.438;2023-09-19T03:51:45;17.75;78.92
13091;DHT22;6611;52.604;13.438;2023-09-19T03:56:47;17.77;77.97
13091;DHT22;6611;52.604;13.438;2023-09-19T04:01:49;17.82;77.14
13091;DHT22;6611;52.604;13.438;2023-09-19T04:06:52;17.80;76.79
13091;DHT22;6611;52.604;13.438;2023-09-19T04:11:53;17.70;77.06
13091;DHT22;6611;52.604;13.438;2023-09-19T04:16:55;17.67;76.91
13091;DHT22;6611;52.604;13.438;2023-09-19T04:21:58;17.67;76.80
13091;DHT22;6611;52.604;13.438;2023-09-19T04:27:00;17.57;76.78
13091;DHT22;6611;52.604;13.438;2023-09-19T04:32:02;17.49;76.68
13091;DHT22;6611;52.604;13.438;2023-09-19T04:37:07;17.45;76.86
13091;DHT22;6611;52.604;13.438;2023-09-19T04:42:09;17.37;77.02
13091;DHT22;6611;52.604;13.438;2023-09-19T04:47:12;17.35;76.75
13091;DHT22;6611;52.604;13.438;2023-09-19T04:52:15;17.29;76.71
13091;DHT22;6611;52.604;13.438;2023-09-19T04:57:16;17.26;76.96
13091;DHT22;6611;52.604;13.438;2023-09-19T05:02:18;17.25;76.68
13091;DHT22;6611;52.604;13.438;2023-09-19T05:07:21;17.23;76.32
13091;DHT22;6611;52.604;13.438;2023-09-19T05:12:26;17.23;76.27
13091;DHT22;6611;52.604;13.438;2023-09-19T05:17:29;17.18;76.05
13091;DHT22;6611;52.604;13.438;2023-09-19T05:22:32;17.09;76.44
13091;DHT22;6611;52.604;13.438;2023-09-19T05:27:34;17.09;76.19
13091;DHT22;6611;52.604;13.438;2023-09-19T05:32:36;17.08;76.54
13091;DHT22;6611;52.604;13.438;2023-09-19T05:37:39;17.07;76.80
13091;DHT22;6611;52.604;13.438;2023-09-19T05:42:41;17.02;76.65
13091;DHT22;6611;52.604;13.438;2023-09-19T05:47:44;17.08;76.43
13091;DHT22;6611;52.604;13.438;2023-09-19T05:52:53;17.09;76.33
13091;DHT22;6611;52.604;13.438;2023-09-19T05:57:56;17.04;76.65
13091;DHT22;6611;52.604;13.438;2023-09-19T06:02:59;17.14;76.38
13091;DHT22;6611;52.604;13.438;2023-09-19T06:08:03;17.36;76.08
13091;DHT22;6611;52.604;13.438;2023-09-19T06:13:08;17.54;74.92
13091;DHT22;6611;52.604;13.438;2023-09-19T06:18:11;17.56;74.25
13091;DHT22;6611;52.604;13.438;2023-09-19T06:23:17;17.69;74.19
13091;DHT22;6611;52.604;13.438;2023-09-19T06:28:20;17.81;74.13
13091;DHT22;6611;52.604;13.438;2023-09-19T06:33:24;17.85;73.87
13091;DHT22;6611;52.604;13.438;2023-09-19T06:38:27;18.19;72.76
13091;DHT22;6611;52.604;13.438;2023-09-19T06:43:29;18.57;71.59
13091;DHT22;6611;52.604;13.438;2023-09-19T06:48:31;19.06;69.75
13091;DHT22;6611;52.604;13.438;2023-09-19T06:53:35;19.33;68.20
13091;DHT22;6611;52.604;13.438;2023-09-19T06:58:36;19.63;67.64
13091;DHT22;6611;52.604;13.438;2023-09-19T07:03:38;19.89;67.08
13091;DHT22;6611;52.604;13.438;2023-09-19T07:08:41;20.08;66.47
13091;DHT22;6611;52.604;13.438;2023-09-19T07:13:45;19.96;66.48
13091;DHT22;6611;52.604;13.438;2023-09-19T07:18:47;19.78;66.90
13091;DHT22;6611;52.604;13.438;2023-09-19T07:23:50;19.73;66.65
13091;DHT22;6611;52.604;13.438;2023-09-19T07:28:52;19.65;67.10
13091;DHT22;6611;52.604;13.438;2023-09-19T07:33:55;19.64;67.28
13091;DHT22;6611;52.604;13.438;2023-09-19T07:38:58;19.51;66.77
13091;DHT22;6611;52.604;13.438;2023-09-19T07:44:00;19.51;66.88
13091;DHT22;6611;52.604;13.438;2023-09-19T07:49:02;19.45;66.11
13091;DHT22;6611;52.604;13.438;2023-09-19T07:54:06;19.27;64.93
13091;DHT22;6611;52.604;13.438;2023-09-19T07:59:08;19.47;65.64
13091;DHT22;6611;52.604;13.438;2023-09-19T08:04:12;19.70;63.43
13091;DHT22;6611;52.604;13.438;2023-09-19T08:09:15;19.81;64.05
13091;DHT22;6611;52.604;13.438;2023-09-19T08:14:21;19.91;61.14
13091;DHT22;6611;52.604;13.438;2023-09-19T08:19:25;19.78;61.96
13091;DHT22;6611;52.604;13.438;2023-09-19T08:24:30;19.57;62.64
13091;DHT22;6611;52.604;13.438;2023-09-19T08:29:33;19.60;63.03
13091;DHT22;6611;52.604;13.438;2023-09-19T08:34:35;19.65;62.26
13091;DHT22;6611;52.604;13.438;2023-09-19T08:39:40;19.86;62.74
13091;DHT22;6611;52.604;13.438;2023-09-19T08:44:42;19.77;63.17
13091;DHT22;6611;52.604;13.438;2023-09-19T08:50:01;19.98;62.34
13091;DHT22;6611;52.604;13.438;2023-09-19T08:55:07;20.20;61.94
13091;DHT22;6611;52.604;13.438;2023-09-19T09:00:14;20.13;61.79
13091;DHT22;6611;52.604;13.438;2023-09-19T09:05:17;20.36;59.94
13091;DHT22;6611;52.604;13.438;2023-09-19T09:10:25;20.09;60.76
13091;DHT22;6611;52.604;13.438;2023-09-19T09:15:29;19.99;59.57
13091;DHT22;6611;52.604;13.438;2023-09-19T09:20:33;19.91;60.37
13091;DHT22;6611;52.604;13.438;2023-09-19T09:25:51;20.23;59.46
13091;DHT22;6611;52.604;13.438;2023-09-19T09:30:57;20.16;59.03
13091;DHT22;6611;52.604;13.438;2023-09-19T09:36:00;20.41;59.54
13091;DHT22;6611;52.604;13.438;2023-09-19T09:41:04;20.53;58.33
13091;DHT22;6611;52.604;13.438;2023-09-19T09:46:10;20.48;57.05
13091;DHT22;6611;52.604;13.438;2023-09-19T09:51:30;20.87;56.42
13091;DHT22;6611;52.604;13.438;2023-09-19T09:56:33;20.94;57.19
13091;DHT22;6611;52.604;13.438;2023-09-19T10:01:46;20.48;56.76
13091;DHT22;6611;52.604;13.438;2023-09-19T10:06:48;20.19;57.82
13091;DHT22;6611;52.604;13.438;2023-09-19T10:12:02;19.99;59.15
13091;DHT22;6611;52.604;13.438;2023-09-19T10:17:05;20.41;58.06
13091;DHT22;6611;52.604;13.438;2023-09-19T10:22:09;20.44;55.30
13091;DHT22;6611;52.604;13.438;2023-09-19T10:27:13;20.70;53.35
13091;DHT22;6611;52.604;13.438;2023-09-19T10:32:21;20.55;53.24
13091;DHT22;6611;52.604;13.438;2023-09-19T10:37:24;20.55;54.05
13091;DHT22;6611;52.604;13.438;2023-09-19T10:42:31;20.72;53.82
13091;DHT22;6611;52.604;13.438;2023-09-19T10:47:34;20.88;52.87
13091;DHT22;6611;52.604;13.438;2023-09-19T10:52:40;21.09;53.27
13091;DHT22;6611;52.604;13.438;2023-09-19T10:57:46;21.51;52.61
13091;DHT22;6611;52.604;13.438;2023-09-19T11:03:16;21.78;50.75
13091;DHT22;6611;52.604;13.438;2023-09-19T11:08:18;21.55;50.32
13091;DHT22;6611;52.604;13.438;2023-09-19T11:13:25;21.23;50.47
13091;DHT22;6611;52.604;13.438;2023-09-19T11:18:52;21.18;50.26
13091;DHT22;6611;52.604;13.438;2023-09-19T11:29:32;21.22;50.37
13091;DHT22;6611;52.604;13.438;2023-09-19T11:34:46;21.18;49.95
13091;DHT22;6611;52.604;13.438;2023-09-19T11:40:06;21.34;49.31
13091;DHT22;6611;52.604;13.438;2023-09-19T11:50:59;21.23;49.89
13091;DHT22;6611;52.604;13.438;2023-09-19T11:56:07;21.19;48.77
13091;DHT22;6611;52.604;13.438;2023-09-19T12:01:13;21.05;50.40
13091;DHT22;6611;52.604;13.438;2023-09-19T12:06:23;21.23;49.04
13091;DHT22;6611;52.604;13.438;2023-09-19T12:11:29;21.18;47.35
13091;DHT22;6611;52.604;13.438;2023-09-19T12:16:33;21.13;48.72
13091;DHT22;6611;52.604;13.438;2023-09-19T12:21:38;21.36;50.37
13091;DHT22;6611;52.604;13.438;2023-09-19T12:26:42;21.39;49.42
13091;DHT22;6611;52.604;13.438;2023-09-19T12:31:53;21.48;48.25
13091;DHT22;6611;52.604;13.438;2023-09-19T12:37:06;21.47;46.75
13091;DHT22;6611;52.604;13.438;2023-09-19T12:42:12;21.59;48.80
13091;DHT22;6611;52.604;13.438;2023-09-19T12:47:16;21.81;47.12
13091;DHT22;6611;52.604;13.438;2023-09-19T12:52:21;21.74;45.26
13091;DHT22;6611;52.604;13.438;2023-09-19T12:57:26;21.73;46.72
13091;DHT22;6611;52.604;13.438;2023-09-19T13:02:28;21.64;46.60
13091;DHT22;6611;52.604;13.438;2023-09-19T13:07:45;21.58;47.16
13091;DHT22;6611;52.604;13.438;2023-09-19T13:12:47;21.40;48.75
13091;DHT22;6611;52.604;13.438;2023-09-19T13:17:49;21.39;47.89
13091;DHT22;6611;52.604;13.438;2023-09-19T13:22:52;21.16;47.26
13091;DHT22;6611;52.604;13.438;2023-09-19T13:27:57;21.26;47.77
13091;DHT22;6611;52.604;13.438;2023-09-19T13:33:06;21.13;48.57
13091;DHT22;6611;52.604;13.438;2023-09-19T13:38:09;21.02;48.87
13091;DHT22;6611;52.604;13.438;2023-09-19T13:43:11;20.99;49.62
13091;DHT22;6611;52.604;13.438;2023-09-19T13:48:13;20.92;49.37
13091;DHT22;6611;52.604;13.438;2023-09-19T13:53:16;20.96;48.90
13091;DHT22;6611;52.604;13.438;2023-09-19T13:58:18;21.00;49.00
13091;DHT22;6611;52.604;13.438;2023-09-19T14:03:21;20.79;49.44
13091;DHT22;6611;52.604;13.438;2023-09-19T14:08:25;20.79;49.31
13091;DHT22;6611;52.604;13.438;2023-09-19T14:13:27;20.78;50.48
13091;DHT22;6611;52.604;13.438;2023-09-19T14:18:29;20.87;48.61
13091;DHT22;6611;52.604;13.438;2023-09-19T14:23:35;20.89;49.99
13091;DHT22;6611;52.604;13.438;2023-09-19T14:28:37;20.96;48.78
13091;DHT22;6611;52.604;13.438;2023-09-19T14:33:39;20.96;49.32
13091;DHT22;6611;52.604;13.438;2023-09-19T14:38:43;20.92;49.78
13091;DHT22;6611;52.604;13.438;2023-09-19T14:43:44;20.87;49.76
13091;DHT22;6611;52.604;13.438;2023-09-19T14:48:46;20.77;50.59
13091;DHT22;6611;52.604;13.438;2023-09-19T14:53:49;20.78;50.65
13091;DHT22;6611;52.604;13.438;2023-09-19T14:58:51;20.78;49.83
13091;DHT22;6611;52.604;13.438;2023-09-19T15:03:53;20.71;51.07
13091;DHT22;6611;52.604;13.438;2023-09-19T15:08:57;20.79;51.54
13091;DHT22;6611;52.604;13.438;2023-09-19T15:13:58;20.77;50.44
13091;DHT22;6611;52.604;13.438;2023-09-19T15:19:00;20.70;51.78
13091;DHT22;6611;52.604;13.438;2023-09-19T15:24:03;20.72;51.60
13091;DHT22;6611;52.604;13.438;2023-09-19T15:29:06;20.64;50.23
13091;DHT22;6611;52.604;13.438;2023-09-19T15:34:07;20.63;50.10
13091;DHT22;6611;52.604;13.438;2023-09-19T15:39:10;20.54;50.19
13091;DHT22;6611;52.604;13.438;2023-09-19T15:44:14;20.55;50.28
13091;DHT22;6611;52.604;13.438;2023-09-19T15:49:16;20.48;51.27
13091;DHT22;6611;52.604;13.438;2023-09-19T15:54:19;20.48;51.17
13091;DHT22;6611;52.604;13.438;2023-09-19T15:59:21;20.40;52.16
13091;DHT22;6611;52.604;13.438;2023-09-19T16:04:23;20.36;51.84
13091;DHT22;6611;52.604;13.438;2023-09-19T16:09:26;20.27;52.29
13091;DHT22;6611;52.604;13.438;2023-09-19T16:14:28;20.17;53.38
13091;DHT22;6611;52.604;13.438;2023-09-19T16:19:31;20.05;51.67
13091;DHT22;6611;52.604;13.438;2023-09-19T16:24:34;19.98;52.08
13091;DHT22;6611;52.604;13.438;2023-09-19T16:29:36;19.93;52.73
13091;DHT22;6611;52.604;13.438;2023-09-19T16:34:38;19.81;52.35
13091;DHT22;6611;52.604;13.438;2023-09-19T16:39:41;19.70;53.50
13091;DHT22;6611;52.604;13.438;2023-09-19T16:44:43;19.57;55.37
13091;DHT22;6611;52.604;13.438;2023-09-19T16:49:45;19.47;54.46
13091;DHT22;6611;52.604;13.438;2023-09-19T16:54:48;19.37;54.72
13091;DHT22;6611;52.604;13.438;2023-09-19T16:59:49;19.30;53.52
13091;DHT22;6611;52.604;13.438;2023-09-19T17:04:51;19.18;54.66
13091;DHT22;6611;52.604;13.438;2023-09-19T17:09:55;19.13;55.05
13091;DHT22;6611;52.604;13.438;2023-09-19T17:14:57;18.96;55.61
13091;DHT22;6611;52.604;13.438;2023-09-19T17:19:58;18.96;56.39
13091;DHT22;6611;52.604;13.438;2023-09-19T17:25:01;18.87;56.53
13091;DHT22;6611;52.604;13.438;2023-09-19T17:30:04;18.72;55.69
13091;DHT22;6611;52.604;13.438;2023-09-19T17:35:06;18.60;55.74
13091;DHT22;6611;52.604;13.438;2023-09-19T17:40:11;18.53;55.72
13091;DHT22;6611;52.604;13.438;2023-09-19T17:45:13;18.50;56.40
13091;DHT22;6611;52.604;13.438;2023-09-19T17:50:16;18.43;57.36
13091;DHT22;6611;52.604;13.438;2023-09-19T17:55:19;18.33;57.87
13091;DHT22;6611;52.604;13.438;2023-09-19T18:00:20;18.13;58.23
13091;DHT22;6611;52.604;13.438;2023-09-19T18:05:22;18.06;57.83
13091;DHT22;6611;52.604;13.438;2023-09-19T18:10:25;18.05;57.47
13091;DHT22;6611;52.604;13.438;2023-09-19T18:15:29;18.13;57.37
13091;DHT22;6611;52.604;13.438;2023-09-19T18:20:34;18.23;56.28
13091;DHT22;6611;52.604;13.438;2023-09-19T18:25:39;18.28;56.47
13091;DHT22;6611;52.604;13.438;2023-09-19T18:30:41;18.30;55.96
13091;DHT22;6611;52.604;13.438;2023-09-19T18:35:43;18.44;56.40
13091;DHT22;6611;52.604;13.438;2023-09-19T18:40:45;18.59;55.86
13091;DHT22;6611;52.604;13.438;2023-09-19T18:45:54;18.65;54.75
13091;DHT22;6611;52.604;13.438;2023-09-19T18:50:56;18.61;55.75
13091;DHT22;6611;52.604;13.438;2023-09-19T18:56:07;18.57;53.91
13091;DHT22;6611;52.604;13.438;2023-09-19T19:01:10;18.51;54.30
13091;DHT22;6611;52.604;13.438;2023-09-19T19:06:13;18.56;54.47
13091;DHT22;6611;52.604;13.438;2023-09-19T19:11:17;18.47;54.98
13091;DHT22;6611;52.604;13.438;2023-09-19T19:16:21;18.50;54.28
13091;DHT22;6611;52.604;13.438;2023-09-19T19:21:26;18.47;55.91
13091;DHT22;6611;52.604;13.438;2023-09-19T19:26:30;18.51;55.29
13091;DHT22;6611;52.604;13.438;2023-09-19T19:31:33;18.43;55.74
13091;DHT22;6611;52.604;13.438;2023-09-19T19:36:37;18.42;55.63
13091;DHT22;6611;52.604;13.438;2023-09-19T19:41:40;18.33;56.21
13091;DHT22;6611;52.604;13.438;2023-09-19T19:46:44;18.30;56.70
13091;DHT22;6611;52.604;13.438;2023-09-19T19:51:46;18.29;56.76
13091;DHT22;6611;52.604;13.438;2023-09-19T19:56:49;18.22;56.67
13091;DHT22;6611;52.604;13.438;2023-09-19T20:01:51;18.21;57.04
13091;DHT22;6611;52.604;13.438;2023-09-19T20:06:53;18.21;56.69
13091;DHT22;6611;52.604;13.438;2023-09-19T20:11:56;18.15;56.48
13091;DHT22;6611;52.604;13.438;2023-09-19T20:16:57;17.97;57.86
13091;DHT22;6611;52.604;13.438;2023-09-19T20:22:00;17.85;57.80
13091;DHT22;6611;52.604;13.438;2023-09-19T20:27:07;17.80;57.86
13091;DHT22;6611;52.604;13.438;2023-09-19T20:32:09;17.71;58.21
13091;DHT22;6611;52.604;13.438;2023-09-19T20:37:11;17.63;59.25
13091;DHT22;6611;52.604;13.438;2023-09-19T20:42:14;17.60;59.07
13091;DHT22;6611;52.604;13.438;2023-09-19T20:47:16;17.61;58.85
13091;DHT22;6611;52.604;13.438;2023-09-19T20:52:18;17.57;59.05
13091;DHT22;6611;52.604;13.438;2023-09-19T20:57:21;17.54;59.11
13091;DHT22;6611;52.604;13.438;2023-09-19T21:02:22;17.57;59.30
13091;DHT22;6611;52.604;13.438;2023-09-19T21:07:25;17.53;59.62
13091;DHT22;6611;52.604;13.438;2023-09-19T21:12:30;17.56;59.24
13091;DHT22;6611;52.604;13.438;2023-09-19T21:17:33;17.51;59.50
13091;DHT22;6611;52.604;13.438;2023-09-19T21:22:42;17.51;59.35
13091;DHT22;6611;52.604;13.438;2023-09-19T21:27:46;17.51;59.68
13091;DHT22;6611;52.604;13.438;2023-09-19T21:32:47;17.59;59.07
13091;DHT22;6611;52.604;13.438;2023-09-19T21:37:49;17.61;59.37
13091;DHT22;6611;52.604;13.438;2023-09-19T21:42:52;17.66;59.04
13091;DHT22;6611;52.604;13.438;2023-09-19T21:47:54;17.67;58.09
13091;DHT22;6611;52.604;13.438;2023-09-19T21:52:56;17.74;58.67
13091;DHT22;6611;52.604;13.438;2023-09-19T21:57:59;17.77;58.28
13091;DHT22;6611;52.604;13.438;2023-09-19T22:03:01;17.80;58.45
13091;DHT22;6611;52.604;13.438;2023-09-19T22:08:04;17.70;58.50
13091;DHT22;6611;52.604;13.438;2023-09-19T22:13:07;17.61;58.89
13091;DHT22;6611;52.604;13.438;2023-09-19T22:18:09;17.70;58.07
13091;DHT22;6611;52.604;13.438;2023-09-19T22:23:12;17.70;58.47
13091;DHT22;6611;52.604;13.438;2023-09-19T22:28:15;17.74;58.35
13091;DHT22;6611;52.604;13.438;2023-09-19T22:33:17;17.69;58.76
13091;DHT22;6611;52.604;13.438;2023-09-19T22:38:19;17.60;58.57
13091;DHT22;6611;52.604;13.438;2023-09-19T22:43:24;17.63;59.01
13091;DHT22;6611;52.604;13.438;2023-09-19T22:48:27;17.54;58.98
13091;DHT22;6611;52.604;13.438;2023-09-19T22:53:30;17.54;59.13
13091;DHT22;6611;52.604;13.438;2023-09-19T22:58:37;17.51;59.99
13091;DHT22;6611;52.604;13.438;2023-09-19T23:03:43;17.46;59.05
13091;DHT22;6611;52.604;13.438;2023-09-19T23:08:52;17.35;59.23
13091;DHT22;6611;52.604;13.438;2023-09-19T23:13:55;17.32;59.39
13091;DHT22;6611;52.604;13.438;2023-09-19T23:18:59;17.26;59.37
13091;DHT22;6611;52.604;13.438;2023-09-19T23:24:15;17.23;59.98
13091;DHT22;6611;52.604;13.438;2023-09-19T23:29:19;17.26;59.80
13091;DHT22;6611;52.604;13.438;2023-09-19T23:34:20;17.20;59.82
13091;DHT22;6611;52.604;13.438;2023-09-19T23:39:22;17.15;59.84
13091;DHT22;6611;52.604;13.438;2023-09-19T23:44:28;17.15;59.97
13091;DHT22;6611;52.604;13.438;2023-09-19T23:49:30;17.01;60.47
13091;DHT22;6611;52.604;13.438;2023-09-19T23:54:32;17.01;60.22
13091;DHT22;6611;52.604;13.438;2023-09-19T23:59:36;17.04;60.07
